Latest Weather Observations for Hartz Mountains

IDT60801

Issued at 1:51 am EDT Saturday 29 February 2020 (issued every 10 minutes, with the page automatically refreshed every 10 minutes)

About weather observations | Map of weather stations | Latest weather observations for TAS | Other Formats
Station Details ID: 094191 Name: HARTZ MOUNTAIN (KEOGHS PIMPLE) Lat: -43.20 Lon: 146.77 Height: 831.0 m
Data from the previous 72 hours. | See also: Recent months at Hartz Mountains
Date/Time
EDT
Temp
°C
App
Temp
°C
Dew
Point
°C
Rel
Hum
%
Delta-T
°C
Wind Press
QNH
hPa
Press
MSL
hPa
Rain since
9am
mm
Dir  Spd
km/h
Gust
km/h
Spd
kts
Gust
kts
29/01:30am 7.8 -4.9 6.9 94 0.4 W 63 98 34 53 - - 0.2
29/01:22am 7.9 -5.2 6.8 93 0.5 W 65 98 35 53 - - 0.2
29/01:00am 8.0 -3.5 6.9 93 0.5 W 57 80 31 43 - - 0.2
29/12:49am 7.7 -3.7 6.8 94 0.4 W 56 87 30 47 - - 0.2
29/12:48am 7.7 -3.7 6.8 94 0.4 W 56 87 30 47 - - 0.2
29/12:31am 7.7 -4.2 7.0 95 0.3 W 59 89 32 48 - - 0.2
29/12:30am 7.7 -4.2 7.0 95 0.3 W 59 89 32 48 - - 0.2
29/12:00am 7.3 -3.4 6.6 95 0.3 W 52 93 28 50 - - 0.2
 
Date/Time
EDT
Temp
°C
App
Temp
°C
Dew
Point
°C
Rel
Hum
%
Delta-T
°C
Wind Press
QNH
hPa
Press
MSL
hPa
Rain since
9am
mm
Dir  Spd
km/h
Gust
km/h
Spd
kts
Gust
kts
28/11:37pm 7.2 -3.5 6.5 95 0.3 W 52 98 28 53 - - 0.2
28/11:30pm 7.2 -3.5 6.6 96 0.3 W 52 78 28 42 - - 0.2
28/11:00pm 7.0 -5.0 6.6 97 0.2 W 59 89 32 48 - - 0.2
28/10:30pm 6.9 -5.1 6.5 97 0.2 W 59 89 32 48 - - 0.2
28/10:23pm 6.9 -4.2 6.5 97 0.2 W 54 80 29 43 - - 0.2
28/10:22pm 6.9 -3.8 6.5 97 0.2 W 52 80 28 43 - - 0.2
28/10:11pm 6.9 -2.6 6.5 97 0.2 W 46 83 25 45 - - 0.2
28/10:08pm 6.8 -3.1 6.4 97 0.2 W 48 76 26 41 - - 0.2
28/10:00pm 6.8 -4.9 6.2 96 0.3 W 57 83 31 45 - - 0.2
28/09:30pm 6.8 -4.4 6.1 95 0.3 W 54 82 29 44 - - 0.2
28/09:00pm 6.7 -3.7 6.0 95 0.3 W 50 69 27 37 - - 0.2
28/08:30pm 6.6 -1.4 5.6 93 0.5 WNW 37 61 20 33 - - 0.2
28/08:16pm 6.6 0.3 5.6 93 0.5 WNW 28 48 15 26 - - 0.2
28/08:00pm 6.6 1.0 5.4 92 0.6 WNW 24 37 13 20 - - 0.2
28/07:30pm 6.7 0.3 5.2 90 0.7 W 28 37 15 20 - - 0.2
28/07:00pm 6.7 -2.6 4.9 88 0.8 W 43 61 23 33 - - 0.2
28/06:30pm 6.7 -2.9 4.5 86 1.0 W 44 63 24 34 - - 0.2
28/06:00pm 6.8 -3.2 4.5 85 1.1 W 46 70 25 38 - - 0.2
28/05:54pm 6.8 -2.6 4.3 84 1.1 W 43 61 23 33 - - 0.2
28/05:30pm 7.0 -3.1 4.0 81 1.4 W 46 61 25 33 - - 0.2
28/05:00pm 7.1 -1.6 3.9 80 1.4 W 39 61 21 33 - - 0.2
28/04:35pm 7.5 -1.1 4.5 81 1.4 W 39 57 21 31 - - 0.2
28/04:30pm 7.5 -2.0 3.9 78 1.6 W 43 57 23 31 - - 0.2
28/04:00pm 8.2 -2.2 4.0 75 1.9 W 48 69 26 37 - - 0.2
28/03:30pm 8.5 -1.5 4.3 75 1.9 W 46 69 25 37 - - 0.2
28/03:00pm 7.6 -2.0 4.2 79 1.6 W 44 74 24 40 - - 0.2
28/02:30pm 8.0 -0.7 4.2 77 1.7 W 39 63 21 34 - - 0.2
28/02:00pm 7.7 0.3 3.9 77 1.7 WNW 32 59 17 32 - - 0.2
28/01:30pm 9.2 2.3 4.6 73 2.1 W 30 63 16 34 - - 0.2
28/01:00pm 8.1 0.2 4.5 78 1.7 W 35 56 19 30 - - 0.2
28/12:30pm 8.1 -1.2 4.9 80 1.5 W 43 69 23 37 - - 0.2
28/12:00pm 7.1 -2.6 4.1 81 1.4 W 44 67 24 36 - - 0.2
28/11:30am 6.5 -3.6 3.7 82 1.3 W 46 70 25 38 - - 0.2
28/11:00am 5.5 -4.2 4.0 90 0.7 WSW 44 67 24 36 - - 0.2
28/10:30am 5.0 -4.5 4.0 93 0.4 WSW 43 69 23 37 - - 0.2
28/10:14am 4.3 -5.3 3.4 94 0.4 WSW 43 61 23 33 - - 0.2
28/10:00am 4.1 -6.1 3.2 94 0.4 WSW 46 63 25 34 - - 0.2
28/09:44am 3.9 -5.9 3.2 95 0.3 WSW 44 80 24 43 - - 0.2
28/09:38am 4.0 -3.7 3.4 96 0.3 WSW 33 59 18 32 - - 0.2
28/09:30am 4.2 -3.8 3.6 96 0.3 WSW 35 48 19 26 - - 0.0
28/09:01am 3.4 -6.3 2.8 96 0.3 WSW 43 61 23 33 - - 0.0
28/09:00am 3.5 -6.2 2.9 96 0.3 WSW 43 59 23 32 - - 14.0
28/08:32am 3.2 -6.2 2.5 95 0.3 WSW 41 59 22 32 - - 13.8
28/08:30am 3.2 -6.6 2.5 95 0.3 WSW 43 59 23 32 - - 13.8
28/08:00am 2.9 -5.4 2.2 95 0.3 WSW 35 56 19 30 - - 13.8
28/07:30am 2.5 -6.2 1.9 96 0.2 WSW 37 67 20 36 - - 13.8
28/07:00am 2.2 -5.6 1.8 97 0.2 WSW 32 50 17 27 - - 13.8
28/06:47am 2.2 -5.2 1.8 97 0.2 WSW 30 48 16 26 - - 13.8
28/06:30am 2.1 -6.3 1.7 97 0.2 WSW 35 50 19 27 - - 13.8
28/06:01am 2.0 -5.1 1.6 97 0.2 WSW 28 48 15 26 - - 13.6
28/06:00am 2.0 -5.1 1.6 97 0.2 WSW 28 43 15 23 - - 13.6
28/05:30am 1.7 -6.1 1.4 98 0.1 WSW 32 54 17 29 - - 13.6
28/05:10am 1.6 -5.6 1.0 96 0.2 SW 28 46 15 25 - - 13.2
28/05:00am 1.9 -3.5 1.5 97 0.2 WSW 19 30 10 16 - - 12.8
28/04:44am 1.8 -5.3 1.1 95 0.3 WSW 28 46 15 25 - - 12.8
28/04:30am 1.8 -4.2 1.1 95 0.3 WSW 22 46 12 25 - - 12.8
28/04:00am 2.0 -5.0 1.9 99 0.0 W 28 46 15 25 - - 12.8
28/03:40am 1.8 -5.2 1.7 99 0.0 WSW 28 46 15 25 - - 12.8
28/03:30am 1.3 -5.1 1.2 99 0.0 W 24 46 13 25 - - 12.8
28/03:01am 1.8 -5.3 1.5 98 0.1 WSW 28 56 15 30 - - 10.6
28/03:00am 1.9 -4.8 1.6 98 0.1 WSW 26 41 14 22 - - 10.6
28/02:30am 1.0 -7.0 0.7 98 0.1 WSW 32 50 17 27 - - 9.8
28/02:00am 2.3 -6.4 2.0 98 0.1 WSW 37 59 20 32 - - 8.2
28/01:30am 2.7 -7.3 2.4 98 0.1 WSW 44 67 24 36 - - 7.6
28/01:11am 2.9 -4.4 2.6 98 0.1 W 30 76 16 41 - - 7.4
28/01:08am 3.0 -3.9 2.7 98 0.1 W 28 46 15 25 - - 7.2
28/01:00am 3.0 -3.9 2.7 98 0.1 W 28 50 15 27 - - 7.2
28/12:30am 3.0 -5.2 2.7 98 0.1 WSW 35 63 19 34 - - 6.8
28/12:12am 3.0 -3.9 2.6 97 0.2 WSW 28 50 15 27 - - 6.2
28/12:10am 2.9 -4.0 2.5 97 0.2 WSW 28 50 15 27 - - 6.2
28/12:00am 3.1 -3.4 2.7 97 0.2 W 26 44 14 24 - - 5.4
 
Date/Time
EDT
Temp
°C
App
Temp
°C
Dew
Point
°C
Rel
Hum
%
Delta-T
°C
Wind Press
QNH
hPa
Press
MSL
hPa
Rain since
9am
mm
Dir  Spd
km/h
Gust
km/h
Spd
kts
Gust
kts
27/11:30pm 3.2 -4.4 2.8 97 0.2 W 32 52 17 28 - - 4.6
27/11:00pm 3.0 -4.6 2.6 97 0.2 W 32 67 17 36 - - 4.6
27/10:30pm 3.3 -4.3 2.9 97 0.2 W 32 70 17 38 - - 4.2
27/10:21pm 3.3 -3.9 2.9 97 0.2 WSW 30 70 16 38 - - 4.0
27/10:11pm 3.1 -3.8 2.8 98 0.1 WSW 28 46 15 25 - - 3.8
27/10:00pm 2.9 -2.9 2.5 97 0.2 W 22 50 12 27 - - 3.8
27/09:34pm 2.9 -5.0 2.5 97 0.2 W 33 52 18 28 - - 3.4
27/09:30pm 2.9 -5.3 2.5 97 0.2 W 35 52 19 28 - - 3.4
27/09:12pm 3.2 -5.3 2.9 98 0.1 W 37 69 20 37 - - 2.8
27/09:00pm 3.2 -3.6 2.9 98 0.1 W 28 48 15 26 - - 2.6
27/08:33pm 2.9 -4.0 2.6 98 0.1 WNW 28 57 15 31 - - 2.6
27/08:30pm 2.8 -3.0 2.5 98 0.1 W 22 57 12 31 - - 2.6
27/08:00pm 2.6 -5.3 2.0 96 0.2 W 33 56 18 30 - - 2.2
27/07:30pm 3.3 -4.5 2.7 96 0.3 W 33 56 18 30 - - 1.4
27/07:00pm 3.9 -5.0 3.3 96 0.3 W 39 78 21 42 - - 1.2
27/06:51pm 4.1 -3.0 3.7 97 0.2 WSW 30 78 16 42 - - 1.2
27/06:49pm 4.3 -2.4 3.9 97 0.2 WSW 28 48 15 26 - - 1.2
27/06:46pm 4.3 -3.1 3.9 97 0.2 W 32 76 17 41 - - 1.2
27/06:30pm 4.3 -4.5 3.7 96 0.3 W 39 63 21 34 - - 0.6
27/06:00pm 4.7 -4.4 4.0 95 0.3 WSW 41 76 22 41 - - 0.4
27/05:30pm 5.3 -2.6 4.1 92 0.5 WSW 35 72 19 39 - - 0.2
27/05:00pm 5.4 -4.1 3.7 89 0.8 WSW 43 80 23 43 - - 0.2
27/04:52pm 5.3 -4.2 4.0 91 0.6 WSW 43 82 23 44 - - 0.2
27/04:38pm 5.3 -5.1 4.4 94 0.4 W 48 85 26 46 - - 0.2
27/04:30pm 5.4 -2.4 4.8 96 0.3 W 35 80 19 43 - - 0.2
27/04:00pm 6.1 -2.3 5.4 95 0.3 W 39 76 21 41 - - 0.2
27/03:30pm 6.2 -1.6 5.0 92 0.6 W 35 85 19 46 - - 0.2
27/03:00pm 6.6 -0.2 5.2 91 0.6 WSW 30 65 16 35 - - 0.2
27/02:55pm 6.6 0.6 5.4 92 0.6 W 26 65 14 35 - - 0.2
27/02:45pm 6.8 0.6 6.1 95 0.3 W 28 65 15 35 - - 0.2
27/02:30pm 6.9 -1.0 6.0 94 0.4 WNW 37 82 20 44 - - 0.2
27/02:19pm 7.0 0.4 6.1 94 0.4 W 30 76 16 41 - - 0.2
27/02:00pm 6.6 -0.1 5.7 94 0.4 W 30 67 16 36 - - 0.2
27/01:30pm 7.0 0.3 5.6 91 0.7 W 30 72 16 39 - - 0.0
27/01:29pm 7.2 0.6 6.0 92 0.6 W 30 72 16 39 - - 0.0
27/01:05pm 7.8 1.8 6.9 94 0.4 W 28 52 15 28 - - 0.0
27/01:00pm 7.9 2.7 7.1 95 0.4 W 24 50 13 27 - - 0.0
27/12:40pm 7.7 0.4 7.0 95 0.3 WNW 35 72 19 39 - - 0.0
27/12:30pm 7.4 0.6 6.7 95 0.3 WNW 32 74 17 40 - - 0.0
27/12:24pm 7.4 0.0 6.7 95 0.3 W 35 74 19 40 - - 0.0
27/12:00pm 7.4 -0.1 6.5 94 0.4 W 35 69 19 37 - - 0.0
27/11:30am 7.4 -1.6 6.3 93 0.5 W 43 76 23 41 - - 0.0
27/11:00am 7.3 -3.9 5.9 91 0.7 WNW 54 89 29 48 - - 0.0
27/10:30am 7.1 -3.3 6.0 93 0.5 WNW 50 91 27 49 - - 0.0
27/10:00am 6.6 -2.4 6.2 97 0.2 W 43 82 23 44 - - 0.0
27/09:33am 6.2 -2.1 5.9 98 0.1 W 39 91 21 49 - - 0.0
27/09:30am 6.2 -1.8 5.9 98 0.1 WNW 37 69 20 37 - - 0.0
27/09:00am 5.9 -2.5 5.6 98 0.1 W 39 80 21 43 - - 1.8
27/08:30am 5.6 -3.3 5.3 98 0.1 W 41 72 22 39 - - 1.8
27/08:00am 5.5 -3.0 5.2 98 0.1 W 39 76 21 41 - - 1.8
27/07:30am 5.3 -3.6 5.0 98 0.1 W 41 63 22 34 - - 1.8
27/07:19am 5.1 -4.8 4.8 98 0.1 W 46 87 25 47 - - 1.8
27/07:00am 4.8 -3.8 4.4 97 0.2 W 39 67 21 36 - - 1.8
27/06:30am 4.6 -4.8 4.2 97 0.2 W 43 72 23 39 - - 1.8
27/06:12am 4.7 -6.8 4.3 97 0.2 W 54 93 29 50 - - 1.8
27/06:00am 4.8 -6.7 4.2 96 0.3 W 54 74 29 40 - - 1.8
27/05:30am 4.8 -6.4 3.9 94 0.4 W 52 87 28 47 - - 1.8
27/05:00am 4.6 -7.7 3.3 91 0.6 W 57 83 31 45 - - 1.8
27/04:35am 4.3 -7.9 3.6 95 0.3 W 57 93 31 50 - - 1.8
27/04:33am 4.2 -8.1 3.3 94 0.4 W 57 93 31 50 - - 1.8
27/04:30am 4.3 -8.0 3.4 94 0.4 W 57 93 31 50 - - 1.8
27/04:00am 4.2 -5.9 3.5 95 0.3 W 46 74 25 40 - - 1.6
27/03:30am 4.2 -6.1 2.9 91 0.6 W 46 91 25 49 - - 1.6
27/03:24am 4.2 -6.1 2.9 91 0.6 W 46 91 25 49 - - 1.6
27/03:00am 3.9 -6.7 2.9 93 0.4 W 48 70 26 38 - - 1.6
27/02:30am 3.8 -6.0 3.2 96 0.3 W 44 69 24 37 - - 1.6
27/02:00am 3.6 -6.6 3.2 97 0.2 W 46 69 25 37 - - 1.6
27/01:30am 3.5 -7.2 2.6 94 0.4 W 48 69 26 37 - - 1.6
27/01:00am 3.4 -7.3 2.7 95 0.3 W 48 70 26 38 - - 1.6
27/12:30am 3.5 -6.4 2.8 95 0.3 W 44 65 24 35 - - 1.6
27/12:00am 3.4 -7.4 2.1 91 0.5 W 48 69 26 37 - - 1.6
 
Date/Time
EDT
Temp
°C
App
Temp
°C
Dew
Point
°C
Rel
Hum
%
Delta-T
°C
Wind Press
QNH
hPa
Press
MSL
hPa
Rain since
9am
mm
Dir  Spd
km/h
Gust
km/h
Spd
kts
Gust
kts
26/11:30pm 3.3 -8.6 2.4 94 0.4 W 54 72 29 39 - - 1.6
26/11:00pm 3.2 -8.7 1.9 91 0.5 W 54 74 29 40 - - 1.6
26/10:31pm 3.1 -7.3 2.2 94 0.4 W 46 72 25 39 - - 1.6
26/10:30pm 3.1 -7.3 2.2 94 0.4 W 46 72 25 39 - - 1.6
26/10:29pm 3.1 -7.3 2.2 94 0.4 W 46 72 25 39 - - 1.6
26/10:13pm 3.1 -8.4 2.2 94 0.4 W 52 83 28 45 - - 1.6
26/10:12pm 3.1 -8.0 2.2 94 0.4 W 50 82 27 44 - - 1.6
26/10:00pm 3.2 -5.8 2.3 94 0.4 W 39 70 21 38 - - 1.6
26/09:30pm 3.1 -6.3 2.2 94 0.4 W 41 69 22 37 - - 1.4
26/09:02pm 3.1 -6.3 2.4 95 0.3 W 41 61 22 33 - - 1.4
26/09:00pm 3.1 -5.9 2.4 95 0.3 W 39 56 21 30 - - 1.4
26/08:30pm 3.2 -4.1 2.3 94 0.4 W 30 52 16 28 - - 1.2
26/08:00pm 3.2 -5.1 2.3 94 0.4 WSW 35 65 19 35 - - 1.2
26/07:34pm 3.7 -3.6 2.4 91 0.5 W 30 50 16 27 - - 1.0
26/07:30pm 3.8 -3.6 2.0 88 0.8 W 30 44 16 24 - - 1.0
26/07:06pm 3.9 -4.0 2.4 90 0.6 W 33 52 18 28 - - 1.0
26/07:00pm 4.0 -4.2 2.8 92 0.5 W 35 52 19 28 - - 1.0
26/06:40pm 3.8 -3.1 2.8 93 0.4 W 28 48 15 26 - - 1.0
26/06:30pm 3.9 -3.0 2.7 92 0.5 W 28 44 15 24 - - 1.0
26/06:13pm 3.8 -3.8 2.8 93 0.4 W 32 50 17 27 - - 1.0
26/06:00pm 3.5 -4.3 2.6 94 0.4 W 33 50 18 27 - - 1.0
26/05:30pm 4.3 -4.1 1.8 84 1.0 WSW 35 57 19 31 - - 0.8
26/05:19pm 5.4 -1.4 2.9 84 1.1 WSW 28 46 15 25 - - 0.8
26/05:00pm 6.1 -2.2 2.2 76 1.7 WSW 35 48 19 26 - - 0.8
26/04:30pm 5.6 -3.3 2.8 82 1.2 WSW 39 57 21 31 - - 0.8
26/04:03pm 6.2 -1.2 5.0 92 0.6 WSW 33 52 18 28 - - 0.8
26/04:00pm 5.6 -3.2 3.6 87 0.9 WSW 39 54 21 29 - - 0.8
26/03:30pm 5.2 -3.6 3.7 90 0.7 WSW 39 69 21 37 - - 0.8
26/03:11pm 6.9 -2.0 3.3 78 1.6 WSW 39 57 21 31 - - 0.8
26/03:00pm 6.8 -2.1 5.0 88 0.8 WSW 41 56 22 30 - - 0.8
26/02:30pm 3.7 -6.3 2.2 90 0.6 SW 44 67 24 36 - - 0.6
26/02:13pm 7.7 -0.6 6.2 90 0.7 WSW 39 57 21 31 - - 0.6
26/02:00pm 7.3 -1.6 5.1 86 1.0 WSW 41 56 22 30 - - 0.6
26/01:52pm 6.5 -0.7 4.8 89 0.8 WSW 32 52 17 28 - - 0.6
26/01:30pm 4.9 -3.8 4.0 94 0.4 SW 39 52 21 28 - - 0.6
26/01:12pm 3.6 -4.8 1.8 88 0.7 WSW 35 57 19 31 - - 0.4
26/01:00pm 5.3 -2.4 3.5 88 0.8 WSW 33 44 18 24 - - 0.4
26/12:30pm 7.0 -0.8 5.0 87 0.9 WSW 35 57 19 31 - - 0.4
26/12:02pm 5.0 -3.1 3.3 89 0.7 WSW 35 54 19 29 - - 0.4
26/12:00pm 5.6 -2.3 4.6 93 0.5 WSW 35 50 19 27 - - 0.4
26/11:37am 4.7 -2.9 4.1 96 0.3 WSW 33 54 18 29 - - 0.4
26/11:30am 4.5 -3.1 3.9 96 0.3 WSW 33 46 18 25 - - 0.4
26/11:00am 4.4 -3.6 4.0 97 0.2 WSW 35 44 19 24 - - 0.4
26/10:30am 3.4 -4.4 2.8 96 0.3 WSW 33 48 18 26 - - 0.2
26/10:00am 3.5 -4.1 3.1 97 0.2 WSW 32 50 17 27 - - 0.2
26/09:57am 3.4 -3.8 3.0 97 0.2 WSW 30 50 16 27 - - 0.2
26/09:30am 3.1 -2.6 2.8 98 0.1 WSW 22 41 12 22 - - 0.2
26/09:00am 3.2 -5.0 2.9 98 0.1 WSW 35 46 19 25 - - 5.2
26/08:30am 3.2 -6.1 2.9 98 0.1 WSW 41 59 22 32 - - 5.2
26/08:02am 3.2 -5.7 2.9 98 0.1 WSW 39 57 21 31 - - 5.0
26/08:00am 3.2 -6.1 2.9 98 0.1 WSW 41 57 22 31 - - 5.0
26/07:46am 3.3 -6.6 3.0 98 0.1 WSW 44 63 24 34 - - 5.0
26/07:30am 3.3 -7.3 3.0 98 0.1 WSW 48 61 26 33 - - 4.8
26/07:00am 3.3 -7.7 2.9 97 0.2 WSW 50 67 27 36 - - 4.4
26/06:35am 3.4 -9.3 3.0 97 0.2 SW 59 80 32 43 - - 4.4
26/06:30am 3.6 -9.1 3.2 97 0.2 SW 59 74 32 40 - - 4.4
26/06:04am 4.4 -7.7 4.0 97 0.2 WSW 57 78 31 42 - - 4.4
26/06:00am 4.8 -7.1 4.4 97 0.2 WSW 56 70 30 38 - - 4.2
26/05:30am 4.9 -7.2 4.3 96 0.3 WSW 57 70 31 38 - - 3.8
26/05:18am 5.1 -6.4 4.2 94 0.4 SW 54 70 29 38 - - 3.8
26/05:02am 6.4 -1.2 5.7 95 0.3 SW 35 59 19 32 - - 3.4
26/05:00am 6.6 -1.0 6.0 96 0.3 SW 35 52 19 28 - - 3.4
26/04:50am 7.2 1.9 6.6 96 0.3 WNW 24 48 13 26 - - 2.6
26/04:30am 7.6 2.3 7.0 96 0.3 NW 24 37 13 20 - - 1.4
26/04:00am 7.5 3.0 6.9 96 0.3 NW 20 37 11 20 - - 1.0
26/03:30am 7.5 3.0 6.8 95 0.3 NW 20 28 11 15 - - 0.8
26/03:00am 7.6 1.9 6.5 93 0.5 WNW 26 41 14 22 - - 0.8
26/02:30am 7.8 2.0 6.3 90 0.7 WNW 26 41 14 22 - - 0.6
26/02:09am 7.9 1.3 6.0 88 0.9 WNW 30 48 16 26 - - 0.6
26/02:00am 7.8 0.6 5.9 88 0.9 WNW 33 46 18 25 - - 0.6

Other formats

Comma delimited format used in spreadsheet applications
http://www.bom.gov.au/fwo/IDT60801/IDT60801.94977.axf

JavaScript Object Notation format (JSON) in row-major order
http://www.bom.gov.au/fwo/IDT60801/IDT60801.94977.json

Data quality

Most of these data are generated automatically and are frequently updated. Quality checks on data are not normally performed. It is possible for incorrect values to appear. Refer to information at About Latest Weather Observations and please check the disclaimer before using these data.